createdAt,value
2017-06-16T00:01:42.840Z,23.13
2017-06-16T00:04:15.645Z,23.1
2017-06-16T00:06:25.590Z,23.21
2017-06-16T00:08:41.351Z,23.06
2017-06-16T00:10:54.643Z,22.99
2017-06-16T00:12:30.489Z,22.99
2017-06-16T00:14:55.686Z,23.11
2017-06-16T00:17:19.910Z,23.01
2017-06-16T00:19:44.126Z,22.91
2017-06-16T00:22:08.335Z,23.1
2017-06-16T00:24:32.502Z,23.14
2017-06-16T00:26:57.688Z,22.91
2017-06-16T00:29:22.904Z,22.91
2017-06-16T00:31:38.661Z,23.01
2017-06-16T00:34:18.788Z,23.02
2017-06-16T00:36:42.952Z,22.92
2017-06-16T00:39:00.688Z,22.98
2017-06-16T00:41:24.881Z,22.93
2017-06-16T00:43:42.631Z,22.98
2017-06-16T00:46:06.818Z,23.08
2017-06-16T00:48:32.964Z,22.88
2017-06-16T00:50:59.107Z,22.78
2017-06-16T00:53:29.788Z,22.84
2017-06-16T00:55:53.972Z,22.84
2017-06-16T00:57:55.373Z,22.65
2017-06-16T01:00:17.189Z,22.51
2017-06-16T01:02:27.113Z,22.62
2017-06-16T01:04:59.952Z,22.4
2017-06-16T01:07:30.447Z,22.49
2017-06-16T01:09:31.876Z,22.52
2017-06-16T01:11:57.065Z,22.34
2017-06-16T01:14:29.187Z,22.55
2017-06-16T01:16:30.593Z,22.52
2017-06-16T01:18:48.340Z,22.52
2017-06-16T01:21:12.502Z,22.4
2017-06-16T01:23:36.686Z,22.36
2017-06-16T01:25:52.385Z,22.4
2017-06-16T01:28:08.070Z,22.41
2017-06-16T01:30:13.402Z,22.16
2017-06-16T01:32:38.502Z,22.19
2017-06-16T01:35:02.659Z,22.14
2017-06-16T01:37:33.406Z,22.3
2017-06-16T01:39:57.523Z,22.38
2017-06-16T01:42:22.678Z,22.53
2017-06-16T01:44:46.823Z,22.34
2017-06-16T01:47:02.490Z,22.4
2017-06-16T01:49:19.171Z,22.37
2017-06-16T01:51:45.324Z,22.44
2017-06-16T01:54:09.433Z,22.33
2017-06-16T01:56:50.419Z,22.4
2017-06-16T01:59:06.113Z,22.43
2017-06-16T02:01:31.251Z,22.43
2017-06-16T02:03:57.385Z,22.23
2017-06-16T02:06:21.538Z,22.38
2017-06-16T02:08:46.676Z,22.23
2017-06-16T02:11:17.417Z,22.37
2017-06-16T02:13:43.489Z,22.25
2017-06-16T02:16:07.617Z,22.19
2017-06-16T02:18:31.744Z,22.25
2017-06-16T02:20:56.848Z,22.08
2017-06-16T02:23:20.931Z,22.34
2017-06-16T02:25:45.064Z,22.28
2017-06-16T02:28:10.201Z,22.38
2017-06-16T02:30:34.336Z,22.4
2017-06-16T02:32:58.441Z,22.37
2017-06-16T02:35:22.590Z,22.49
2017-06-16T02:37:39.273Z,22.52
2017-06-16T02:40:03.389Z,22.26
2017-06-16T02:42:27.459Z,22.38
2017-06-16T02:44:51.560Z,22.47
2017-06-16T02:47:14.921Z,22.12
2017-06-16T02:49:39.037Z,22.08
2017-06-16T02:52:03.149Z,22.14
2017-06-16T02:54:28.265Z,22.12
2017-06-16T02:56:52.396Z,21.92
2017-06-16T02:59:16.530Z,22.07
2017-06-16T03:01:49.422Z,21.91
2017-06-16T03:04:06.117Z,22.01
2017-06-16T03:06:30.252Z,21.96
2017-06-16T03:08:31.645Z,22.01
2017-06-16T03:10:55.793Z,22
2017-06-16T03:13:12.502Z,22
2017-06-16T03:15:45.478Z,22.01
2017-06-16T03:17:59.478Z,21.97
2017-06-16T03:20:23.578Z,22.03
2017-06-16T03:22:39.263Z,21.7
2017-06-16T03:25:03.363Z,21.59
2017-06-16T03:27:27.979Z,21.69
2017-06-16T03:29:52.057Z,21.92
2017-06-16T03:32:01.978Z,21.94
2017-06-16T03:34:27.086Z,21.92
2017-06-16T03:36:51.180Z,22.04
2017-06-16T03:39:06.831Z,21.83
2017-06-16T03:41:32.910Z,21.63
2017-06-16T03:43:49.509Z,21.66
2017-06-16T03:46:14.585Z,21.69
2017-06-16T03:48:38.680Z,21.68
2017-06-16T03:51:02.776Z,21.69
2017-06-16T03:53:09.958Z,21.97
2017-06-16T03:55:35.058Z,21.96
2017-06-16T03:58:01.174Z,21.81
2017-06-16T04:00:17.834Z,21.74
2017-06-16T04:02:41.303Z,21.6
2017-06-16T04:05:05.408Z,21.7
2017-06-16T04:07:29.475Z,21.77
2017-06-16T04:10:00.301Z,21.72
2017-06-16T04:12:24.390Z,21.85
2017-06-16T04:14:48.500Z,21.97
2017-06-16T04:17:13.583Z,22
2017-06-16T04:19:45.309Z,21.89
2017-06-16T04:22:00.979Z,21.77
2017-06-16T04:24:16.645Z,21.85
2017-06-16T04:26:39.313Z,21.83
2017-06-16T04:28:56.003Z,22.1
2017-06-16T04:31:27.814Z,22.03
2017-06-16T04:33:58.813Z,21.68
2017-06-16T04:36:29.301Z,21.96
2017-06-16T04:38:45.010Z,21.83
2017-06-16T04:41:09.140Z,22.14
2017-06-16T04:43:33.285Z,22.34
2017-06-16T04:45:58.421Z,22.36
2017-06-16T04:48:22.582Z,22.16
2017-06-16T04:50:47.759Z,22.53
2017-06-16T04:53:04.482Z,22.8
2017-06-16T04:55:20.200Z,22.89
2017-06-16T04:57:44.339Z,24.85
2017-06-16T05:00:00.131Z,27.18
2017-06-16T05:03:51.715Z,26.51
2017-06-16T05:06:07.771Z,25.26
2017-06-16T05:08:48.017Z,24.81
2017-06-16T05:11:13.490Z,25.83
2017-06-16T05:13:21.051Z,28.4
2017-06-16T05:15:45.609Z,33.94
2017-06-16T05:18:00.022Z,35.94
2017-06-16T05:20:17.527Z,38.32
2017-06-16T05:22:44.830Z,40.2
2017-06-16T05:25:01.804Z,42.28
2017-06-16T05:27:20.048Z,42.63
2017-06-16T05:29:48.000Z,44.64
2017-06-16T05:32:15.155Z,40.86
2017-06-16T05:36:18.087Z,41.83
2017-06-16T05:38:51.474Z,45.33
2017-06-16T05:41:32.978Z,46.74
2017-06-16T05:43:09.460Z,44.23
2017-06-16T05:45:38.246Z,46.43
2017-06-16T05:47:50.347Z,46.13
2017-06-16T05:51:45.049Z,47.54
2017-06-16T05:54:14.063Z,45.58
2017-06-16T05:56:41.085Z,48.98
2017-06-16T06:00:44.074Z,46.28
2017-06-16T06:03:19.203Z,44.75
2017-06-16T06:05:48.231Z,40.43
2017-06-16T06:09:42.690Z,37.07
2017-06-16T06:13:28.173Z,34.65
2017-06-16T06:17:29.978Z,30.88
2017-06-16T06:21:31.441Z,36.92
2017-06-16T06:25:24.908Z,39.14
2017-06-16T06:29:27.422Z,41.78
2017-06-16T06:33:29.499Z,36.54
2017-06-16T06:35:47.402Z,37.78
2017-06-16T06:39:50.394Z,34.51
2017-06-16T06:43:53.314Z,33.09
2017-06-16T06:47:55.966Z,34.25
2017-06-16T06:50:22.109Z,34.35
2017-06-16T06:54:23.974Z,33.38
2017-06-16T06:58:26.186Z,34.28
2017-06-16T07:00:51.448Z,34.14
2017-06-16T07:04:53.063Z,35.18
2017-06-16T07:08:46.710Z,34.98
2017-06-16T07:10:23.136Z,35.35
2017-06-16T07:14:16.250Z,33.08
2017-06-16T07:16:42.933Z,33.26
2017-06-16T07:20:44.799Z,34.33
2017-06-16T07:24:46.126Z,34.81
2017-06-16T07:27:18.890Z,34.69
2017-06-16T07:29:44.394Z,33.63
2017-06-16T07:33:37.119Z,33.66
2017-06-16T07:36:02.864Z,34.09
2017-06-16T07:38:28.306Z,34.63
2017-06-16T07:41:01.875Z,34.13
2017-06-16T07:43:34.869Z,35.44
2017-06-16T07:47:52.435Z,35.72
2017-06-16T07:51:54.376Z,34.51
2017-06-16T07:57:31.641Z,33.33
2017-06-16T08:03:00.832Z,33.98
2017-06-16T08:05:32.589Z,33.33
2017-06-16T08:07:34.960Z,33.82
2017-06-16T08:09:45.338Z,35.1
2017-06-16T08:13:46.866Z,37.53
2017-06-16T08:17:48.428Z,35.27
2017-06-16T08:23:18.266Z,35.49
2017-06-16T08:27:11.352Z,36.65
2017-06-16T08:32:49.560Z,37.15
2017-06-16T08:36:51.750Z,37.06
2017-06-16T08:40:53.971Z,36.92
2017-06-16T08:44:55.634Z,38.31
2017-06-16T08:47:12.985Z,36.76
2017-06-16T08:51:19.840Z,34.93
2017-06-16T08:55:12.924Z,36.89
2017-06-16T08:59:14.478Z,36.29
2017-06-16T09:03:07.546Z,36.92
2017-06-16T09:05:50.289Z,37
2017-06-16T09:08:31.791Z,37.4
2017-06-16T09:12:33.421Z,35.93
2017-06-16T09:16:17.937Z,35.61
2017-06-16T09:18:50.676Z,36.33
2017-06-16T09:23:08.973Z,38.5
2017-06-16T09:27:02.000Z,33.44
2017-06-16T09:31:03.996Z,35.32
2017-06-16T09:35:05.443Z,34.26
2017-06-16T09:39:06.866Z,33.54
2017-06-16T09:43:08.157Z,34.18
2017-06-16T09:46:46.152Z,34.98
2017-06-16T09:50:47.501Z,33.08
2017-06-16T09:53:13.007Z,34.22
2017-06-16T09:57:14.239Z,33.61
2017-06-16T09:59:38.946Z,33.72
2017-06-16T10:03:40.198Z,31.79
2017-06-16T10:06:07.607Z,30.01
2017-06-16T10:10:08.644Z,30.7
2017-06-16T10:14:09.669Z,32.05
2017-06-16T10:18:11.191Z,30.67
2017-06-16T10:20:20.407Z,29.89
2017-06-16T10:22:35.431Z,30.29
2017-06-16T10:24:52.032Z,29.87
2017-06-16T10:27:17.101Z,30.26
2017-06-16T10:29:42.164Z,29.69
2017-06-16T10:32:07.208Z,29.73
2017-06-16T10:34:32.239Z,29.1
2017-06-16T10:36:48.707Z,29.89
2017-06-16T10:39:13.686Z,30.26
2017-06-16T10:41:30.174Z,29.84
2017-06-16T10:43:38.188Z,30.03
2017-06-16T10:46:03.167Z,30.36
2017-06-16T10:48:04.789Z,29.83
2017-06-16T10:50:21.279Z,29.76
2017-06-16T10:52:37.859Z,29.09
2017-06-16T10:55:02.857Z,28.83
2017-06-16T10:57:27.807Z,29.28
2017-06-16T10:59:52.750Z,28.59
2017-06-16T11:01:54.330Z,29.06
2017-06-16T11:04:19.249Z,28.97
2017-06-16T11:06:44.154Z,29.44
2017-06-16T11:09:09.064Z,29.09
2017-06-16T11:11:33.981Z,28.78
2017-06-16T11:13:50.383Z,29.81
2017-06-16T11:16:15.268Z,30.13
2017-06-16T11:18:40.234Z,29.21
2017-06-16T11:20:48.233Z,29.35
2017-06-16T11:22:47.650Z,29.5
2017-06-16T11:25:12.564Z,28.68
2017-06-16T11:27:22.678Z,28.77
2017-06-16T11:29:39.095Z,28.19
2017-06-16T11:32:03.998Z,28.3
2017-06-16T11:34:28.888Z,28.59
2017-06-16T11:36:45.305Z,27.9
2017-06-16T11:39:10.094Z,28.13
2017-06-16T11:41:34.923Z,28.37
2017-06-16T11:43:59.799Z,28.12
2017-06-16T11:46:24.697Z,28.2
2017-06-16T11:48:49.499Z,28.16
2017-06-16T11:51:14.401Z,28.28
2017-06-16T11:53:39.199Z,28.38
2017-06-16T11:56:03.958Z,28.9
2017-06-16T11:58:28.758Z,29.07
2017-06-16T12:00:53.521Z,28.97
2017-06-16T12:03:18.307Z,29
2017-06-16T12:05:34.629Z,28.27
2017-06-16T12:07:42.495Z,28.08
2017-06-16T12:10:07.298Z,28.13
2017-06-16T12:12:32.068Z,28.83
2017-06-16T12:14:56.870Z,28.33
2017-06-16T12:17:13.177Z,27.95
2017-06-16T12:19:53.470Z,28.59
2017-06-16T12:22:25.015Z,28.41
2017-06-16T12:24:49.806Z,28.72
2017-06-16T12:27:14.706Z,29.15
2017-06-16T12:29:31.108Z,29.8
2017-06-16T12:31:55.958Z,29.79
2017-06-16T12:34:21.853Z,30.16
2017-06-16T12:36:38.266Z,29.95
2017-06-16T12:39:03.177Z,29.73
2017-06-16T12:41:13.346Z,30.05
2017-06-16T12:43:39.279Z,29.61
2017-06-16T12:46:04.196Z,29.57
2017-06-16T12:48:12.112Z,29.25
2017-06-16T12:50:29.521Z,29.98
2017-06-16T12:52:55.445Z,29.87
2017-06-16T12:55:20.361Z,29.87
2017-06-16T12:57:36.768Z,30.1
2017-06-16T13:00:01.703Z,30.21
2017-06-16T13:02:26.649Z,29.94
2017-06-16T13:04:51.590Z,30.69
2017-06-16T13:06:53.180Z,30.61
2017-06-16T13:09:18.137Z,29.96
2017-06-16T13:11:43.095Z,30.65
2017-06-16T13:14:09.047Z,30.71
2017-06-16T13:16:25.512Z,30.21
2017-06-16T13:18:50.504Z,30.2
2017-06-16T13:21:15.459Z,30.01
2017-06-16T13:23:40.428Z,30.46
2017-06-16T13:25:56.897Z,30.27
2017-06-16T13:28:21.844Z,30.16
2017-06-16T13:30:23.933Z,30.01
2017-06-16T13:32:25.993Z,30.06
2017-06-16T13:34:50.942Z,29.89
2017-06-16T13:37:15.847Z,29.32
2017-06-16T13:39:32.259Z,29.73
2017-06-16T13:41:57.150Z,29.65
2017-06-16T13:44:07.347Z,30.11
2017-06-16T13:46:32.279Z,30.18
2017-06-16T13:48:57.181Z,29.49
2017-06-16T13:51:22.189Z,29.13
2017-06-16T13:53:47.193Z,28.94
2017-06-16T13:56:12.096Z,28.53
2017-06-16T13:58:36.976Z,28.49
2017-06-16T14:01:01.861Z,29.16
2017-06-16T14:03:26.736Z,28.6
2017-06-16T14:05:28.306Z,28.67
2017-06-16T14:07:53.182Z,28.27
2017-06-16T14:10:18.023Z,28.93
2017-06-16T14:12:42.833Z,28.83
2017-06-16T14:14:59.160Z,28.86
2017-06-16T14:17:23.988Z,29.21
2017-06-16T14:19:48.806Z,29.28
2017-06-16T14:22:13.626Z,29.16
2017-06-16T14:24:29.952Z,28.87
2017-06-16T14:26:54.751Z,28.74
2017-06-16T14:29:19.548Z,28.97
2017-06-16T14:31:44.353Z,28.94
2017-06-16T14:34:09.185Z,28.7
2017-06-16T14:36:34.022Z,28.43
2017-06-16T14:38:58.814Z,28.5
2017-06-16T14:41:23.595Z,28.93
2017-06-16T14:43:48.323Z,28.41
2017-06-16T14:45:49.849Z,27.88
2017-06-16T14:48:14.640Z,28.35
2017-06-16T14:50:39.378Z,28.27
2017-06-16T14:53:04.150Z,28.77
2017-06-16T14:55:28.899Z,28.72
2017-06-16T14:57:30.472Z,28.74
2017-06-16T14:59:55.252Z,28.4
2017-06-16T15:02:20.030Z,29.07
2017-06-16T15:04:44.815Z,29.3
2017-06-16T15:07:01.119Z,28.52
2017-06-16T15:09:11.249Z,28.33
2017-06-16T15:11:27.575Z,28.57
2017-06-16T15:13:52.359Z,28.09
2017-06-16T15:16:17.130Z,27.86
2017-06-16T15:18:41.867Z,28.3
2017-06-16T15:21:06.560Z,28.7
2017-06-16T15:23:31.335Z,28.3
2017-06-16T15:25:56.077Z,28.45
2017-06-16T15:28:03.890Z,28.04
2017-06-16T15:30:28.656Z,28.6
2017-06-16T15:32:53.427Z,28.62
2017-06-16T15:35:03.560Z,29.13
2017-06-16T15:37:28.354Z,29.1
2017-06-16T15:39:44.651Z,28.71
2017-06-16T15:41:55.271Z,28.55
2017-06-16T15:44:20.038Z,28.53
2017-06-16T15:46:44.772Z,28.41
2017-06-16T15:49:09.526Z,28.37
2017-06-16T15:51:34.223Z,28.28
2017-06-16T15:53:58.969Z,28
2017-06-16T15:56:01.013Z,28.06
2017-06-16T15:58:17.263Z,28.38
2017-06-16T16:00:41.972Z,28.23
2017-06-16T16:03:06.706Z,27.94
2017-06-16T16:04:43.043Z,27.76
2017-06-16T16:07:07.791Z,27.83
2017-06-16T16:09:32.518Z,27.52
2017-06-16T16:11:57.232Z,27.73
2017-06-16T16:14:21.992Z,27.85
2017-06-16T16:16:46.778Z,28.2
2017-06-16T16:19:02.977Z,27.64
2017-06-16T16:21:27.671Z,27.33
2017-06-16T16:23:35.394Z,26.91
2017-06-16T16:26:00.040Z,27.03
2017-06-16T16:28:24.654Z,26.97
2017-06-16T16:30:51.300Z,26.83
2017-06-16T16:33:15.902Z,26.49
2017-06-16T16:35:41.522Z,26.7
2017-06-16T16:38:07.154Z,26.91
2017-06-16T16:40:31.777Z,27.11
2017-06-16T16:42:56.392Z,26.83
2017-06-16T16:45:22.043Z,26.89
2017-06-16T16:47:46.635Z,27.03
2017-06-16T16:50:11.336Z,26.98
2017-06-16T16:52:35.922Z,26.97
2017-06-16T16:55:00.515Z,27.18
2017-06-16T16:57:16.714Z,27.35
2017-06-16T16:59:41.409Z,27.43
2017-06-16T17:02:06.004Z,27.47
2017-06-16T17:04:30.614Z,27.2
2017-06-16T17:06:55.289Z,27.33
2017-06-16T17:09:19.890Z,26.81
2017-06-16T17:11:44.591Z,26.79
2017-06-16T17:14:09.280Z,26.85
2017-06-16T17:16:25.476Z,26.7
2017-06-16T17:18:50.072Z,27
2017-06-16T17:21:14.777Z,27.05
2017-06-16T17:23:41.413Z,26.96
2017-06-16T17:26:06.108Z,27
2017-06-16T17:28:30.801Z,26.71
2017-06-16T17:30:46.999Z,26.33
2017-06-16T17:33:03.146Z,26.61
2017-06-16T17:35:19.294Z,26.37
2017-06-16T17:37:44.912Z,26.44
2017-06-16T17:39:55.509Z,26.19
2017-06-16T17:42:20.067Z,26.07
2017-06-16T17:44:44.664Z,25.92
2017-06-16T17:47:00.757Z,26.18
2017-06-16T17:49:25.249Z,25.83
2017-06-16T17:51:49.838Z,25.95
2017-06-16T17:54:14.427Z,25.99
2017-06-16T17:56:30.535Z,26.18
2017-06-16T17:58:46.637Z,26.19
2017-06-16T18:00:22.475Z,26.07
2017-06-16T18:02:47.993Z,26.03
2017-06-16T18:05:12.587Z,25.73
2017-06-16T18:07:28.679Z,25.77
2017-06-16T18:09:53.117Z,25.59
2017-06-16T18:12:03.629Z,25.59
2017-06-16T18:14:28.229Z,25.4
2017-06-16T18:16:44.210Z,25.68
2017-06-16T18:19:10.667Z,25.56
2017-06-16T18:21:35.150Z,25.41
2017-06-16T18:24:01.690Z,25.52
2017-06-16T18:26:26.158Z,25.62
2017-06-16T18:28:34.361Z,25.61
2017-06-16T18:30:58.273Z,25.29
2017-06-16T18:33:15.285Z,25.58
2017-06-16T18:35:41.719Z,25.34
2017-06-16T18:37:57.712Z,25.29
2017-06-16T18:40:22.203Z,25.24
2017-06-16T18:42:47.611Z,25.15
2017-06-16T18:44:49.071Z,24.96
2017-06-16T18:47:13.575Z,25.15
2017-06-16T18:49:38.062Z,25.03
2017-06-16T18:51:56.092Z,25.04
2017-06-16T18:54:20.584Z,24.78
2017-06-16T18:56:24.114Z,24.59
2017-06-16T18:58:57.338Z,24.84
2017-06-16T19:01:13.290Z,24.92
2017-06-16T19:03:14.769Z,24.92
2017-06-16T19:05:41.128Z,25.03
2017-06-16T19:08:12.049Z,24.97
2017-06-16T19:10:36.435Z,24.81
2017-06-16T19:13:07.533Z,24.69
2017-06-16T19:15:38.561Z,24.82
2017-06-16T19:17:31.559Z,24.65
2017-06-16T19:19:56.954Z,24.75
2017-06-16T19:22:21.344Z,24.58
2017-06-16T19:24:37.230Z,24.59
2017-06-16T19:27:02.556Z,24.71
2017-06-16T19:29:41.861Z,24.66
2017-06-16T19:32:08.232Z,24.28
2017-06-16T19:34:32.567Z,24.46
2017-06-16T19:36:48.436Z,24.31
2017-06-16T19:39:04.261Z,24.43
2017-06-16T19:41:20.137Z,24.47
2017-06-16T19:43:44.467Z,24.38
2017-06-16T19:46:08.787Z,24.32
2017-06-16T19:48:34.108Z,24.47
2017-06-16T19:50:58.425Z,24.38
2017-06-16T19:53:22.763Z,24.44
2017-06-16T19:55:49.071Z,24.26
2017-06-16T19:58:21.369Z,24.51
2017-06-16T20:00:46.687Z,24.5
2017-06-16T20:03:11.090Z,24.32
2017-06-16T20:05:35.419Z,24.29
2017-06-16T20:08:06.398Z,24.03
2017-06-16T20:10:32.707Z,24.22
2017-06-16T20:13:03.877Z,23.95
2017-06-16T20:15:29.217Z,24.06
2017-06-16T20:17:53.556Z,23.91
2017-06-16T20:20:24.380Z,23.86
2017-06-16T20:22:25.811Z,24.01
2017-06-16T20:24:50.127Z,23.62
2017-06-16T20:27:14.432Z,23.66
2017-06-16T20:29:39.698Z,23.69
2017-06-16T20:32:03.986Z,23.54
2017-06-16T20:34:28.271Z,23.69
2017-06-16T20:36:52.557Z,23.62
2017-06-16T20:38:54.979Z,23.66
2017-06-16T20:41:20.287Z,23.54
2017-06-16T20:43:45.566Z,23.55
2017-06-16T20:46:11.853Z,23.59
2017-06-16T20:48:44.783Z,23.37
2017-06-16T20:51:10.062Z,23.26
2017-06-16T20:53:36.285Z,23.25
2017-06-16T20:55:51.573Z,23.32
2017-06-16T20:58:08.367Z,23.23
2017-06-16T21:00:25.145Z,23.17
2017-06-16T21:02:51.367Z,23.14
2017-06-16T21:05:17.571Z,23.14
2017-06-16T21:07:41.802Z,23.26
2017-06-16T21:10:07.029Z,23.33
2017-06-16T21:12:23.062Z,23.23
2017-06-16T21:14:54.066Z,23.32
2017-06-16T21:17:19.282Z,23.25
2017-06-16T21:19:35.060Z,23.36
2017-06-16T21:21:59.281Z,23.23
2017-06-16T21:24:31.073Z,23.28
2017-06-16T21:26:56.297Z,23.33
2017-06-16T21:29:27.072Z,23.44
2017-06-16T21:31:51.279Z,23.37
2017-06-16T21:34:17.478Z,23.47
2017-06-16T21:36:19.909Z,23.51
2017-06-16T21:38:44.194Z,23.54
2017-06-16T21:41:10.397Z,23.55
2017-06-16T21:43:34.622Z,23.45
2017-06-16T21:46:07.706Z,23.17
2017-06-16T21:48:32.941Z,23.11
2017-06-16T21:50:49.702Z,23.14
2017-06-16T21:53:13.930Z,23.23
2017-06-16T21:55:15.375Z,23.17
2017-06-16T21:57:39.633Z,22.84
2017-06-16T21:59:41.006Z,23.1
2017-06-16T22:02:06.241Z,23.08
2017-06-16T22:04:32.478Z,23.28
2017-06-16T22:06:57.709Z,23.37
2017-06-16T22:09:21.939Z,23.44
2017-06-16T22:11:48.159Z,23.21
2017-06-16T22:14:04.923Z,23.1
2017-06-16T22:16:31.145Z,23.21
2017-06-16T22:19:02.346Z,23.07
2017-06-16T22:21:26.626Z,23.13
2017-06-16T22:23:52.848Z,23.07
2017-06-16T22:26:17.056Z,23.06
2017-06-16T22:28:42.268Z,23.01
2017-06-16T22:31:06.457Z,22.51
2017-06-16T22:33:32.657Z,22.53
2017-06-16T22:36:04.365Z,22.19
2017-06-16T22:38:35.372Z,22.12
2017-06-16T22:40:59.565Z,22.28
2017-06-16T22:43:32.358Z,22.21
2017-06-16T22:45:56.510Z,22.03
2017-06-16T22:48:20.644Z,22.08
2017-06-16T22:50:38.348Z,21.96
2017-06-16T22:52:56.061Z,21.99
2017-06-16T22:55:12.748Z,21.92
2017-06-16T22:57:37.787Z,21.75
2017-06-16T23:00:02.981Z,21.78
2017-06-16T23:02:28.035Z,21.43
2017-06-16T23:04:53.185Z,21.66
2017-06-16T23:07:17.301Z,21.7
2017-06-16T23:09:43.413Z,21.65
2017-06-16T23:11:59.080Z,21.53
2017-06-16T23:14:31.365Z,21.68
2017-06-16T23:16:49.054Z,21.69
2017-06-16T23:19:04.718Z,21.5
2017-06-16T23:21:36.493Z,21.22
2017-06-16T23:23:37.970Z,21.35
2017-06-16T23:26:02.128Z,21.11
2017-06-16T23:28:19.860Z,21.01
2017-06-16T23:30:28.039Z,20.67
2017-06-16T23:32:54.090Z,21.01
2017-06-16T23:35:19.114Z,20.89
2017-06-16T23:37:49.694Z,20.92
2017-06-16T23:40:21.698Z,20.88
2017-06-16T23:42:46.761Z,20.73
2017-06-16T23:45:11.838Z,20.74
2017-06-16T23:47:43.704Z,20.49
2017-06-16T23:50:09.712Z,20.64
2017-06-16T23:52:35.765Z,20.37
2017-06-16T23:54:49.024Z,20.37
2017-06-16T23:57:05.645Z,20.18
2017-06-16T23:59:12.790Z,20.34
